createdAt,value
2022-10-11T08:14:46.626Z,10.80
2022-10-11T08:17:14.129Z,10.80
2022-10-11T08:19:40.851Z,10.90
2022-10-11T08:22:07.475Z,10.90
2022-10-11T08:24:38.169Z,10.90
2022-10-11T08:27:05.424Z,11.00
2022-10-11T08:29:32.838Z,11.00
2022-10-11T08:31:59.457Z,10.90
2022-10-11T08:34:26.166Z,10.90
2022-10-11T08:36:52.895Z,11.10
2022-10-11T08:39:19.475Z,11.20
2022-10-11T08:42:01.647Z,11.20
2022-10-11T08:47:39.340Z,11.40
2022-10-11T08:50:07.829Z,11.50
2022-10-11T08:52:46.377Z,11.60
2022-10-11T08:55:28.311Z,11.70
2022-10-11T08:57:56.506Z,11.80
2022-10-11T09:00:24.062Z,12.00
2022-10-11T09:03:16.423Z,11.90
2022-10-11T09:05:57.611Z,12.00
2022-10-11T09:08:50.013Z,11.90
2022-10-11T09:11:38.457Z,12.00
2022-10-11T09:14:31.124Z,12.20
2022-10-11T09:17:40.851Z,12.30
2022-10-11T09:20:32.382Z,12.40
2022-10-11T09:22:58.949Z,12.30
2022-10-11T09:25:35.252Z,12.30
2022-10-11T09:28:10.818Z,12.50
2022-10-11T09:30:45.932Z,12.70
2022-10-11T09:33:19.675Z,12.70
2022-10-11T09:35:52.281Z,13.00
2022-10-11T09:38:18.931Z,12.90
2022-10-11T09:40:54.595Z,13.10
2022-10-11T09:43:21.324Z,12.80
2022-10-11T09:45:49.636Z,13.10
2022-10-11T09:48:33.623Z,13.10
2022-10-11T09:51:08.085Z,13.30
2022-10-11T09:53:50.559Z,13.40
2022-10-11T09:56:17.338Z,13.20
2022-10-11T09:58:43.978Z,13.10
2022-10-11T10:01:13.716Z,13.30
2022-10-11T10:03:43.031Z,13.20
2022-10-11T10:06:13.699Z,13.50
2022-10-11T10:08:42.543Z,13.50
2022-10-11T10:11:10.631Z,13.70
2022-10-11T10:13:52.091Z,13.40
2022-10-11T10:16:25.661Z,13.60
2022-10-11T10:19:04.795Z,13.90
2022-10-11T10:21:37.977Z,14.20
2022-10-11T10:24:27.803Z,13.60
2022-10-11T10:27:21.331Z,13.70
2022-10-11T10:30:09.703Z,13.90
2022-10-11T10:32:59.982Z,14.00
2022-10-11T10:35:52.686Z,14.10
2022-10-11T10:38:26.713Z,14.20
2022-10-11T10:41:01.112Z,14.20
2022-10-11T10:43:35.461Z,13.90
2022-10-11T10:46:18.660Z,14.10
2022-10-11T10:51:57.684Z,14.40
2022-10-11T10:54:59.288Z,14.10
2022-10-11T10:57:36.357Z,13.90
2022-10-11T11:00:08.855Z,14.40
2022-10-11T11:02:46.657Z,14.40
2022-10-11T11:05:51.177Z,14.10
2022-10-11T11:08:38.581Z,14.20
2022-10-11T11:11:14.118Z,14.40
2022-10-11T11:14:14.278Z,14.40
2022-10-11T11:17:10.802Z,14.50
2022-10-11T11:20:24.561Z,14.60
2022-10-11T11:23:19.610Z,14.80
2022-10-11T11:26:43.454Z,14.40
2022-10-11T11:29:19.944Z,14.50
2022-10-11T11:31:56.683Z,14.30
2022-10-11T11:34:25.782Z,14.60
2022-10-11T11:37:04.287Z,14.80
2022-10-11T11:39:43.828Z,14.70
2022-10-11T11:42:31.556Z,14.70
2022-10-11T11:45:05.459Z,15.00
2022-10-11T11:47:41.673Z,14.70
2022-10-11T11:50:23.015Z,14.60
2022-10-11T11:53:00.616Z,14.80
2022-10-11T11:55:52.454Z,15.10
2022-10-11T11:58:29.959Z,14.70
2022-10-11T12:01:07.693Z,14.80
2022-10-11T12:03:44.105Z,14.80
2022-10-11T12:06:13.704Z,15.20
2022-10-11T12:08:43.971Z,15.30
2022-10-11T12:11:25.516Z,15.60
2022-10-11T12:13:55.655Z,15.60
2022-10-11T12:16:23.308Z,15.70
2022-10-11T12:18:59.149Z,15.80
2022-10-11T12:21:33.217Z,16.00
2022-10-11T12:24:09.022Z,15.70
2022-10-11T12:26:56.461Z,15.90
2022-10-11T12:29:48.350Z,15.80
2022-10-11T12:32:33.873Z,15.90
2022-10-11T12:35:36.604Z,15.90
2022-10-11T12:38:15.852Z,16.00
2022-10-11T12:40:45.777Z,15.80
2022-10-11T12:43:15.133Z,15.70
2022-10-11T12:45:47.773Z,15.70
2022-10-11T12:48:41.069Z,15.40
2022-10-11T12:51:52.913Z,16.00
2022-10-11T12:54:56.159Z,16.00
2022-10-11T12:57:56.713Z,15.40
2022-10-11T13:00:48.233Z,15.90
2022-10-11T13:03:35.655Z,16.70
2022-10-11T13:06:19.294Z,16.90
2022-10-11T13:08:52.591Z,16.40
2022-10-11T13:11:27.610Z,16.70
2022-10-11T13:14:00.626Z,17.30
2022-10-11T13:16:41.663Z,17.10
2022-10-11T13:19:14.064Z,17.10
2022-10-11T13:21:40.959Z,17.10
2022-10-11T13:24:17.463Z,17.30
2022-10-11T13:26:48.746Z,17.80
2022-10-11T13:29:20.514Z,18.20
2022-10-11T13:31:49.030Z,17.20
2022-10-11T13:34:18.602Z,16.90
2022-10-11T13:36:47.735Z,17.20
2022-10-11T13:39:35.357Z,17.60
2022-10-11T13:42:06.921Z,17.80
2022-10-11T13:44:36.345Z,17.30
2022-10-11T13:47:03.656Z,16.90
2022-10-11T13:49:39.997Z,16.10
2022-10-11T13:52:21.638Z,15.70
2022-10-11T13:55:05.770Z,15.70
2022-10-11T13:57:48.155Z,15.70
2022-10-11T14:00:14.807Z,15.60
2022-10-11T14:02:58.009Z,15.40
2022-10-11T14:05:34.209Z,15.50
2022-10-11T14:08:04.239Z,15.40
2022-10-11T14:10:31.365Z,15.40
2022-10-11T14:13:22.166Z,15.30
2022-10-11T14:15:59.974Z,15.20
2022-10-11T14:18:33.545Z,15.00
2022-10-11T14:21:25.121Z,15.10
2022-10-11T14:24:10.479Z,15.10
2022-10-11T14:26:49.424Z,15.10
2022-10-11T14:29:28.242Z,15.00
2022-10-11T14:32:07.783Z,14.90
2022-10-11T14:34:35.028Z,14.90
2022-10-11T14:37:01.631Z,14.90
2022-10-11T14:39:31.193Z,14.90
2022-10-11T14:41:57.911Z,14.70
2022-10-11T14:44:24.958Z,14.80
2022-10-11T14:46:54.529Z,14.70
2022-10-11T14:49:25.125Z,14.80
2022-10-11T14:51:52.882Z,14.90
2022-10-11T14:54:24.235Z,15.00
2022-10-11T14:56:52.655Z,15.00
2022-10-11T14:59:22.630Z,15.00
2022-10-11T15:01:53.992Z,15.00
2022-10-11T15:04:23.211Z,14.90
2022-10-11T15:06:51.748Z,14.90
2022-10-11T15:09:20.820Z,14.80
2022-10-11T15:11:48.922Z,14.70
2022-10-11T15:14:15.539Z,14.60
2022-10-11T15:16:42.343Z,14.50
2022-10-11T15:19:24.951Z,14.40
2022-10-11T15:21:51.893Z,14.30
2022-10-11T15:24:22.428Z,14.30
2022-10-11T15:26:49.421Z,14.30
2022-10-11T15:29:17.835Z,14.20
2022-10-11T15:31:44.864Z,14.00
2022-10-11T15:34:11.678Z,13.90
2022-10-11T15:36:38.738Z,13.90
2022-10-11T15:39:25.505Z,13.80
2022-10-11T15:41:52.105Z,13.70
2022-10-11T15:44:18.772Z,13.60
2022-10-11T15:46:45.938Z,13.70
2022-10-11T15:49:13.768Z,13.60
2022-10-11T15:51:40.768Z,13.50
2022-10-11T15:54:07.450Z,13.30
2022-10-11T15:56:34.304Z,13.20
2022-10-11T15:59:01.369Z,13.10
2022-10-11T16:01:27.969Z,13.00
2022-10-11T16:03:54.617Z,12.90
2022-10-11T16:06:21.204Z,12.70
2022-10-11T16:08:48.027Z,12.70
2022-10-11T16:11:14.937Z,12.50
2022-10-11T16:13:41.844Z,12.40
2022-10-11T16:16:09.817Z,12.30
2022-10-11T16:18:37.503Z,12.20
2022-10-11T16:21:14.025Z,12.10
2022-10-11T16:23:40.614Z,11.90
2022-10-11T16:26:11.750Z,11.80
2022-10-11T16:28:38.456Z,11.60
2022-10-11T16:31:10.536Z,11.60
2022-10-11T16:33:45.530Z,11.40
2022-10-11T16:36:35.775Z,11.40
2022-10-11T16:39:07.054Z,11.20
2022-10-11T16:41:33.700Z,11.10
2022-10-11T16:44:00.530Z,11.00
2022-10-11T16:46:27.097Z,10.90
2022-10-11T16:48:55.868Z,10.70
2022-10-11T16:51:24.149Z,10.60
2022-10-11T16:53:52.206Z,10.50
2022-10-11T16:56:20.483Z,10.50
2022-10-11T16:58:47.174Z,10.50
2022-10-11T17:01:13.951Z,10.40
2022-10-11T17:03:40.645Z,10.30
2022-10-11T17:06:08.145Z,10.30
2022-10-11T17:08:35.237Z,10.30
2022-10-11T17:11:02.515Z,10.20
2022-10-11T17:13:29.096Z,10.10
2022-10-11T17:15:55.744Z,10.00
2022-10-11T17:18:22.297Z,9.90
2022-10-11T17:20:48.978Z,9.90
2022-10-11T17:23:15.691Z,9.80
2022-10-11T17:25:46.942Z,9.70
2022-10-11T17:28:13.623Z,9.70
2022-10-11T17:30:43.205Z,9.60
2022-10-11T17:33:09.791Z,9.60
2022-10-11T17:35:36.562Z,9.50
2022-10-11T17:38:06.142Z,9.40
2022-10-11T17:40:33.187Z,9.30
2022-10-11T17:42:59.807Z,9.30
2022-10-11T17:49:20.762Z,9.20
2022-10-11T17:51:47.345Z,9.20
2022-10-11T17:54:14.216Z,9.10
2022-10-11T17:56:41.864Z,9.00
2022-10-11T17:59:15.611Z,9.00
2022-10-11T18:01:42.256Z,8.90
2022-10-11T18:04:16.207Z,8.90
2022-10-11T18:06:44.940Z,8.90
2022-10-11T18:09:13.774Z,8.80
2022-10-11T18:11:40.704Z,8.80
2022-10-11T18:14:07.402Z,8.70
2022-10-11T18:16:34.911Z,8.70
2022-10-11T18:19:04.210Z,8.60
2022-10-11T18:21:34.581Z,8.60
2022-10-11T18:24:10.654Z,8.60
2022-10-11T18:26:37.717Z,8.60
2022-10-11T18:29:05.120Z,8.50
2022-10-11T18:31:36.334Z,8.50
2022-10-11T18:34:04.689Z,8.50
2022-10-11T18:36:32.207Z,8.40
2022-10-11T18:39:02.061Z,8.40
2022-10-11T18:41:31.972Z,8.40
2022-10-11T18:44:07.762Z,8.30
2022-10-11T18:46:34.925Z,8.30
2022-10-11T18:49:02.209Z,8.30
2022-10-11T18:51:33.105Z,8.20
2022-10-11T18:54:00.544Z,8.20
2022-10-11T18:56:28.853Z,8.20
2022-10-11T18:58:57.247Z,8.10
2022-10-11T19:01:25.062Z,8.10
2022-10-11T19:03:54.141Z,8.10
2022-10-11T19:06:22.937Z,8.20
2022-10-11T19:08:52.150Z,8.10
2022-10-11T19:11:22.810Z,8.00
2022-10-11T19:13:58.750Z,7.90
2022-10-11T19:16:26.865Z,7.90
2022-10-11T19:18:53.848Z,7.90
2022-10-11T19:21:20.910Z,7.90
2022-10-11T19:23:48.765Z,7.90
2022-10-11T19:26:33.391Z,7.90
2022-10-11T19:29:07.900Z,7.90
2022-10-11T19:31:36.436Z,7.90
2022-10-11T19:34:03.296Z,7.80
2022-10-11T19:36:35.598Z,7.70
2022-10-11T19:39:04.306Z,7.70
2022-10-11T19:41:31.089Z,7.70
2022-10-11T19:44:00.419Z,7.60
2022-10-11T19:46:44.871Z,7.50
2022-10-11T19:49:17.349Z,7.50
2022-10-11T19:51:44.006Z,7.50
2022-10-11T19:54:13.501Z,7.40
2022-10-11T19:56:40.840Z,7.40
2022-10-11T19:59:07.493Z,7.30
2022-10-11T20:01:36.097Z,7.40
2022-10-11T20:04:08.621Z,7.30
2022-10-11T20:06:38.919Z,7.40
2022-10-11T20:09:27.913Z,7.30
2022-10-11T20:11:53.630Z,7.30
2022-10-11T20:14:20.495Z,7.40
2022-10-11T20:16:50.358Z,7.30
2022-10-11T20:19:17.411Z,7.30
2022-10-11T20:21:44.859Z,7.30
2022-10-11T20:24:11.460Z,7.20
2022-10-11T20:26:38.949Z,7.20
2022-10-11T20:29:06.284Z,7.10
2022-10-11T20:31:34.717Z,7.00
2022-10-11T20:34:04.000Z,7.10
2022-10-11T20:36:31.712Z,7.10
2022-10-11T20:38:59.737Z,7.00
2022-10-11T20:41:32.004Z,6.90
2022-10-11T20:43:59.955Z,6.90
2022-10-11T20:46:29.779Z,6.90
2022-10-11T20:49:01.955Z,6.90
2022-10-11T20:51:32.712Z,6.90
2022-10-11T20:54:00.561Z,6.80
2022-10-11T20:56:27.565Z,6.80
2022-10-11T20:58:56.367Z,6.80
2022-10-11T21:01:35.516Z,6.70
2022-10-11T21:04:02.763Z,6.70
2022-10-11T21:06:31.173Z,6.70
2022-10-11T21:08:59.184Z,6.70
2022-10-11T21:11:33.370Z,6.60
2022-10-11T21:14:03.508Z,6.60
2022-10-11T21:16:30.912Z,6.60
2022-10-11T21:18:59.138Z,6.60
2022-10-11T21:21:27.197Z,6.60
2022-10-11T21:23:55.816Z,6.70
2022-10-11T21:26:22.790Z,6.70
2022-10-11T21:28:49.600Z,6.60
2022-10-11T21:31:18.142Z,6.50
2022-10-11T21:33:44.843Z,6.50
2022-10-11T21:36:17.050Z,6.40
2022-10-11T21:38:43.889Z,6.50
2022-10-11T21:41:13.772Z,6.40
2022-10-11T21:43:40.612Z,6.40
2022-10-11T21:46:11.937Z,6.40
2022-10-11T21:48:38.951Z,6.30
2022-10-11T21:51:06.172Z,6.30
2022-10-11T21:53:33.126Z,6.40
2022-10-11T21:56:00.705Z,6.40
2022-10-11T21:58:27.765Z,6.40
2022-10-11T22:00:54.666Z,6.30
2022-10-11T22:03:21.334Z,6.20
2022-10-11T22:05:48.486Z,6.20
2022-10-11T22:08:15.740Z,6.20
2022-10-11T22:10:52.486Z,6.10
2022-10-11T22:13:19.018Z,6.10
2022-10-11T22:15:45.627Z,6.10
2022-10-11T22:18:12.229Z,6.10
2022-10-11T22:20:38.794Z,6.10
2022-10-11T22:23:05.447Z,6.10
2022-10-11T22:25:35.116Z,6.00
2022-10-11T22:28:01.837Z,6.00
2022-10-11T22:30:28.451Z,6.00
2022-10-11T22:32:55.028Z,6.10
2022-10-11T22:35:21.599Z,6.10
2022-10-11T22:37:50.153Z,6.10
2022-10-11T22:40:17.942Z,6.00
2022-10-11T22:42:44.642Z,6.00
2022-10-11T22:45:11.842Z,6.00
2022-10-11T22:47:38.744Z,6.00
2022-10-11T22:50:05.806Z,6.00
2022-10-11T22:52:32.428Z,6.10
2022-10-11T22:54:59.023Z,6.10
2022-10-11T22:57:25.605Z,6.10
2022-10-11T22:59:52.163Z,6.00
2022-10-11T23:02:18.755Z,5.90
2022-10-11T23:04:45.326Z,5.80
2022-10-11T23:07:11.893Z,5.90
2022-10-11T23:09:38.461Z,5.90
2022-10-11T23:12:05.294Z,5.90
2022-10-11T23:14:31.875Z,5.80
2022-10-11T23:16:58.436Z,5.70
2022-10-11T23:19:24.997Z,5.60
2022-10-11T23:21:51.623Z,5.70
2022-10-11T23:24:18.197Z,5.60
2022-10-11T23:26:44.733Z,5.60
2022-10-11T23:29:11.293Z,5.60
2022-10-11T23:31:37.879Z,5.60
2022-10-11T23:34:04.514Z,5.60
2022-10-11T23:36:31.202Z,5.60
2022-10-11T23:38:59.159Z,5.60
2022-10-11T23:41:28.771Z,5.60
2022-10-11T23:43:55.411Z,5.50
2022-10-11T23:46:22.127Z,5.50
2022-10-11T23:48:48.905Z,5.50
2022-10-11T23:51:15.964Z,5.40
2022-10-11T23:53:42.668Z,5.40
2022-10-11T23:56:11.340Z,5.50
2022-10-11T23:58:38.345Z,5.40
